sensor_id;sensor_type;location;lat;lon;timestamp;P1;durP1;ratioP1;P2;durP2;ratioP2
81934;SDS011;71405;47.674;-2.050;2023-08-12T00:00:54;0.20;;;0.20;;
81934;SDS011;71405;47.674;-2.050;2023-08-12T00:03:20;0.20;;;0.20;;
81934;SDS011;71405;47.674;-2.050;2023-08-12T00:05:46;0.20;;;0.20;;
81934;SDS011;71405;47.674;-2.050;2023-08-12T00:08:11;0.20;;;0.20;;
81934;SDS011;71405;47.674;-2.050;2023-08-12T00:10:37;0.20;;;0.20;;
81934;SDS011;71405;47.674;-2.050;2023-08-12T00:13:03;0.20;;;0.20;;
81934;SDS011;71405;47.674;-2.050;2023-08-12T00:15:28;0.20;;;0.20;;
81934;SDS011;71405;47.674;-2.050;2023-08-12T00:17:54;0.10;;;0.10;;
81934;SDS011;71405;47.674;-2.050;2023-08-12T00:20:20;0.10;;;0.10;;
81934;SDS011;71405;47.674;-2.050;2023-08-12T00:22:45;0.20;;;0.20;;
81934;SDS011;71405;47.674;-2.050;2023-08-12T00:25:11;0.10;;;0.10;;
81934;SDS011;71405;47.674;-2.050;2023-08-12T00:27:37;0.10;;;0.10;;
81934;SDS011;71405;47.674;-2.050;2023-08-12T00:30:03;0.20;;;0.20;;
81934;SDS011;71405;47.674;-2.050;2023-08-12T00:32:29;0.10;;;0.10;;
81934;SDS011;71405;47.674;-2.050;2023-08-12T00:34:55;0.10;;;0.10;;
81934;SDS011;71405;47.674;-2.050;2023-08-12T00:37:21;0.20;;;0.20;;
81934;SDS011;71405;47.674;-2.050;2023-08-12T00:39:47;0.10;;;0.10;;
81934;SDS011;71405;47.674;-2.050;2023-08-12T00:42:13;0.10;;;0.10;;
81934;SDS011;71405;47.674;-2.050;2023-08-12T00:44:39;0.10;;;0.10;;
81934;SDS011;71405;47.674;-2.050;2023-08-12T00:47:04;0.10;;;0.10;;
81934;SDS011;71405;47.674;-2.050;2023-08-12T00:49:31;0.20;;;0.20;;
81934;SDS011;71405;47.674;-2.050;2023-08-12T00:51:58;0.20;;;0.20;;
81934;SDS011;71405;47.674;-2.050;2023-08-12T00:54:25;0.10;;;0.10;;
81934;SDS011;71405;47.674;-2.050;2023-08-12T00:56:52;0.13;;;0.13;;
81934;SDS011;71405;47.674;-2.050;2023-08-12T00:59:19;0.10;;;0.10;;
81934;SDS011;71405;47.674;-2.050;2023-08-12T01:01:46;0.10;;;0.10;;
81934;SDS011;71405;47.674;-2.050;2023-08-12T01:04:12;0.10;;;0.10;;
81934;SDS011;71405;47.674;-2.050;2023-08-12T01:06:38;0.10;;;0.10;;
81934;SDS011;71405;47.674;-2.050;2023-08-12T01:09:04;0.10;;;0.10;;
81934;SDS011;71405;47.674;-2.050;2023-08-12T01:11:50;0.10;;;0.10;;
81934;SDS011;71405;47.674;-2.050;2023-08-12T01:14:28;0.10;;;0.10;;
81934;SDS011;71405;47.674;-2.050;2023-08-12T01:16:58;0.10;;;0.10;;
81934;SDS011;71405;47.674;-2.050;2023-08-12T01:19:35;0.10;;;0.10;;
81934;SDS011;71405;47.674;-2.050;2023-08-12T01:22:03;0.10;;;0.10;;
81934;SDS011;71405;47.674;-2.050;2023-08-12T01:24:40;0.15;;;0.15;;
81934;SDS011;71405;47.674;-2.050;2023-08-12T01:27:08;0.10;;;0.10;;
81934;SDS011;71405;47.674;-2.050;2023-08-12T01:29:35;0.10;;;0.10;;
81934;SDS011;71405;47.674;-2.050;2023-08-12T01:37:27;0.10;;;0.10;;
81934;SDS011;71405;47.674;-2.050;2023-08-12T01:39:55;0.10;;;0.10;;
81934;SDS011;71405;47.674;-2.050;2023-08-12T01:42:23;0.10;;;0.10;;
81934;SDS011;71405;47.674;-2.050;2023-08-12T01:44:50;0.10;;;0.10;;
81934;SDS011;71405;47.674;-2.050;2023-08-12T01:47:16;0.10;;;0.10;;
81934;SDS011;71405;47.674;-2.050;2023-08-12T01:49:41;0.10;;;0.10;;
81934;SDS011;71405;47.674;-2.050;2023-08-12T01:52:07;0.10;;;0.10;;
81934;SDS011;71405;47.674;-2.050;2023-08-12T01:54:33;0.10;;;0.10;;
81934;SDS011;71405;47.674;-2.050;2023-08-12T01:57:03;0.10;;;0.10;;
81934;SDS011;71405;47.674;-2.050;2023-08-12T01:59:36;0.13;;;0.13;;
81934;SDS011;71405;47.674;-2.050;2023-08-12T02:02:03;0.10;;;0.10;;
81934;SDS011;71405;47.674;-2.050;2023-08-12T02:04:29;0.10;;;0.10;;
81934;SDS011;71405;47.674;-2.050;2023-08-12T02:06:55;0.10;;;0.10;;
81934;SDS011;71405;47.674;-2.050;2023-08-12T02:09:20;0.10;;;0.10;;
81934;SDS011;71405;47.674;-2.050;2023-08-12T02:11:47;0.20;;;0.20;;
81934;SDS011;71405;47.674;-2.050;2023-08-12T02:14:13;0.10;;;0.10;;
81934;SDS011;71405;47.674;-2.050;2023-08-12T02:16:39;0.10;;;0.10;;
81934;SDS011;71405;47.674;-2.050;2023-08-12T02:19:05;0.10;;;0.10;;
81934;SDS011;71405;47.674;-2.050;2023-08-12T02:21:31;0.10;;;0.10;;
81934;SDS011;71405;47.674;-2.050;2023-08-12T02:23:57;0.10;;;0.10;;
81934;SDS011;71405;47.674;-2.050;2023-08-12T02:26:23;0.10;;;0.10;;
81934;SDS011;71405;47.674;-2.050;2023-08-12T02:28:48;0.10;;;0.10;;
81934;SDS011;71405;47.674;-2.050;2023-08-12T02:31:15;0.10;;;0.10;;
81934;SDS011;71405;47.674;-2.050;2023-08-12T02:33:41;0.10;;;0.10;;
81934;SDS011;71405;47.674;-2.050;2023-08-12T02:36:07;0.10;;;0.10;;
81934;SDS011;71405;47.674;-2.050;2023-08-12T02:38:32;0.10;;;0.10;;
81934;SDS011;71405;47.674;-2.050;2023-08-12T02:40:58;0.10;;;0.10;;
81934;SDS011;71405;47.674;-2.050;2023-08-12T02:43:24;0.10;;;0.10;;
81934;SDS011;71405;47.674;-2.050;2023-08-12T02:45:49;0.10;;;0.10;;
81934;SDS011;71405;47.674;-2.050;2023-08-12T02:48:15;0.10;;;0.10;;
81934;SDS011;71405;47.674;-2.050;2023-08-12T02:50:41;0.10;;;0.10;;
81934;SDS011;71405;47.674;-2.050;2023-08-12T02:53:07;0.10;;;0.10;;
81934;SDS011;71405;47.674;-2.050;2023-08-12T02:55:33;0.10;;;0.10;;
81934;SDS011;71405;47.674;-2.050;2023-08-12T02:57:59;0.10;;;0.10;;
81934;SDS011;71405;47.674;-2.050;2023-08-12T03:00:28;0.10;;;0.10;;
81934;SDS011;71405;47.674;-2.050;2023-08-12T03:02:54;0.20;;;0.20;;
81934;SDS011;71405;47.674;-2.050;2023-08-12T03:05:20;0.10;;;0.10;;
81934;SDS011;71405;47.674;-2.050;2023-08-12T03:07:45;0.10;;;0.10;;
81934;SDS011;71405;47.674;-2.050;2023-08-12T03:10:11;0.10;;;0.10;;
81934;SDS011;71405;47.674;-2.050;2023-08-12T03:12:37;0.10;;;0.10;;
81934;SDS011;71405;47.674;-2.050;2023-08-12T03:15:03;0.10;;;0.10;;
81934;SDS011;71405;47.674;-2.050;2023-08-12T03:17:30;0.10;;;0.10;;
81934;SDS011;71405;47.674;-2.050;2023-08-12T03:19:56;0.10;;;0.10;;
81934;SDS011;71405;47.674;-2.050;2023-08-12T03:22:24;0.10;;;0.10;;
81934;SDS011;71405;47.674;-2.050;2023-08-12T03:24:53;0.10;;;0.10;;
81934;SDS011;71405;47.674;-2.050;2023-08-12T03:27:19;0.13;;;0.13;;
81934;SDS011;71405;47.674;-2.050;2023-08-12T03:29:44;0.10;;;0.10;;
81934;SDS011;71405;47.674;-2.050;2023-08-12T03:32:10;0.20;;;0.20;;
81934;SDS011;71405;47.674;-2.050;2023-08-12T03:34:36;0.10;;;0.10;;
81934;SDS011;71405;47.674;-2.050;2023-08-12T03:37:01;0.10;;;0.10;;
81934;SDS011;71405;47.674;-2.050;2023-08-12T03:39:27;0.10;;;0.10;;
81934;SDS011;71405;47.674;-2.050;2023-08-12T03:41:53;0.10;;;0.10;;
81934;SDS011;71405;47.674;-2.050;2023-08-12T03:44:18;0.20;;;0.20;;
81934;SDS011;71405;47.674;-2.050;2023-08-12T03:46:44;0.10;;;0.10;;
81934;SDS011;71405;47.674;-2.050;2023-08-12T03:49:10;0.10;;;0.10;;
81934;SDS011;71405;47.674;-2.050;2023-08-12T03:51:35;0.10;;;0.10;;
81934;SDS011;71405;47.674;-2.050;2023-08-12T03:54:01;0.10;;;0.10;;
81934;SDS011;71405;47.674;-2.050;2023-08-12T03:56:28;0.17;;;0.17;;
81934;SDS011;71405;47.674;-2.050;2023-08-12T03:58:54;0.10;;;0.10;;
81934;SDS011;71405;47.674;-2.050;2023-08-12T04:01:20;0.10;;;0.10;;
81934;SDS011;71405;47.674;-2.050;2023-08-12T04:03:46;0.10;;;0.10;;
81934;SDS011;71405;47.674;-2.050;2023-08-12T04:06:12;0.10;;;0.10;;
81934;SDS011;71405;47.674;-2.050;2023-08-12T04:08:38;0.15;;;0.15;;
81934;SDS011;71405;47.674;-2.050;2023-08-12T04:11:04;0.10;;;0.10;;
81934;SDS011;71405;47.674;-2.050;2023-08-12T04:13:29;0.10;;;0.10;;
81934;SDS011;71405;47.674;-2.050;2023-08-12T04:15:55;0.10;;;0.10;;
81934;SDS011;71405;47.674;-2.050;2023-08-12T04:18:21;0.10;;;0.10;;
81934;SDS011;71405;47.674;-2.050;2023-08-12T04:20:50;0.10;;;0.10;;
81934;SDS011;71405;47.674;-2.050;2023-08-12T04:23:17;0.10;;;0.10;;
81934;SDS011;71405;47.674;-2.050;2023-08-12T04:25:44;0.10;;;0.10;;
81934;SDS011;71405;47.674;-2.050;2023-08-12T04:28:10;0.10;;;0.10;;
81934;SDS011;71405;47.674;-2.050;2023-08-12T04:30:40;0.13;;;0.13;;
81934;SDS011;71405;47.674;-2.050;2023-08-12T04:33:10;0.10;;;0.10;;
81934;SDS011;71405;47.674;-2.050;2023-08-12T04:35:36;0.10;;;0.10;;
81934;SDS011;71405;47.674;-2.050;2023-08-12T04:38:03;0.10;;;0.10;;
81934;SDS011;71405;47.674;-2.050;2023-08-12T04:40:29;0.10;;;0.10;;
81934;SDS011;71405;47.674;-2.050;2023-08-12T04:42:54;0.10;;;0.10;;
81934;SDS011;71405;47.674;-2.050;2023-08-12T04:45:20;0.10;;;0.10;;
81934;SDS011;71405;47.674;-2.050;2023-08-12T04:47:46;0.10;;;0.10;;
81934;SDS011;71405;47.674;-2.050;2023-08-12T04:50:11;0.10;;;0.10;;
81934;SDS011;71405;47.674;-2.050;2023-08-12T04:52:37;0.40;;;0.40;;
81934;SDS011;71405;47.674;-2.050;2023-08-12T04:55:02;0.68;;;0.55;;
81934;SDS011;71405;47.674;-2.050;2023-08-12T04:57:29;0.60;;;0.60;;
81934;SDS011;71405;47.674;-2.050;2023-08-12T04:59:55;0.40;;;0.40;;
81934;SDS011;71405;47.674;-2.050;2023-08-12T05:02:21;0.30;;;0.30;;
81934;SDS011;71405;47.674;-2.050;2023-08-12T05:04:50;0.20;;;0.20;;
81934;SDS011;71405;47.674;-2.050;2023-08-12T05:07:16;0.30;;;0.30;;
81934;SDS011;71405;47.674;-2.050;2023-08-12T05:09:42;0.30;;;0.30;;
81934;SDS011;71405;47.674;-2.050;2023-08-12T05:12:09;0.30;;;0.30;;
81934;SDS011;71405;47.674;-2.050;2023-08-12T05:14:36;0.30;;;0.30;;
81934;SDS011;71405;47.674;-2.050;2023-08-12T05:17:02;0.20;;;0.20;;
81934;SDS011;71405;47.674;-2.050;2023-08-12T05:19:28;1.48;;;1.38;;
81934;SDS011;71405;47.674;-2.050;2023-08-12T05:21:53;0.40;;;0.40;;
81934;SDS011;71405;47.674;-2.050;2023-08-12T05:24:19;0.40;;;0.40;;
81934;SDS011;71405;47.674;-2.050;2023-08-12T05:26:45;0.50;;;0.50;;
81934;SDS011;71405;47.674;-2.050;2023-08-12T05:29:10;0.30;;;0.30;;
81934;SDS011;71405;47.674;-2.050;2023-08-12T05:31:36;0.68;;;0.55;;
81934;SDS011;71405;47.674;-2.050;2023-08-12T05:34:02;0.30;;;0.30;;
81934;SDS011;71405;47.674;-2.050;2023-08-12T05:36:28;0.30;;;0.30;;
81934;SDS011;71405;47.674;-2.050;2023-08-12T05:38:54;0.20;;;0.20;;
81934;SDS011;71405;47.674;-2.050;2023-08-12T05:41:19;0.20;;;0.20;;
81934;SDS011;71405;47.674;-2.050;2023-08-12T05:43:45;0.20;;;0.20;;
81934;SDS011;71405;47.674;-2.050;2023-08-12T05:46:12;0.28;;;0.28;;
81934;SDS011;71405;47.674;-2.050;2023-08-12T05:48:37;0.30;;;0.30;;
81934;SDS011;71405;47.674;-2.050;2023-08-12T05:51:03;0.20;;;0.20;;
81934;SDS011;71405;47.674;-2.050;2023-08-12T05:53:28;0.20;;;0.20;;
81934;SDS011;71405;47.674;-2.050;2023-08-12T05:55:55;0.20;;;0.20;;
81934;SDS011;71405;47.674;-2.050;2023-08-12T05:58:21;0.40;;;0.30;;
81934;SDS011;71405;47.674;-2.050;2023-08-12T06:00:47;0.28;;;0.28;;
81934;SDS011;71405;47.674;-2.050;2023-08-12T06:03:12;0.20;;;0.20;;
81934;SDS011;71405;47.674;-2.050;2023-08-12T06:05:39;0.20;;;0.20;;
81934;SDS011;71405;47.674;-2.050;2023-08-12T06:08:05;1.00;;;0.20;;
81934;SDS011;71405;47.674;-2.050;2023-08-12T06:10:32;0.40;;;0.40;;
81934;SDS011;71405;47.674;-2.050;2023-08-12T06:12:58;0.57;;;0.52;;
81934;SDS011;71405;47.674;-2.050;2023-08-12T06:15:24;0.40;;;0.40;;
81934;SDS011;71405;47.674;-2.050;2023-08-12T06:17:50;0.40;;;0.40;;
81934;SDS011;71405;47.674;-2.050;2023-08-12T06:20:16;0.30;;;0.30;;
81934;SDS011;71405;47.674;-2.050;2023-08-12T06:22:41;0.32;;;0.32;;
81934;SDS011;71405;47.674;-2.050;2023-08-12T06:25:07;0.28;;;0.28;;
81934;SDS011;71405;47.674;-2.050;2023-08-12T06:27:33;0.30;;;0.30;;
81934;SDS011;71405;47.674;-2.050;2023-08-12T06:29:59;0.30;;;0.30;;
81934;SDS011;71405;47.674;-2.050;2023-08-12T06:32:24;0.30;;;0.30;;
81934;SDS011;71405;47.674;-2.050;2023-08-12T06:34:50;0.30;;;0.30;;
81934;SDS011;71405;47.674;-2.050;2023-08-12T06:37:16;0.25;;;0.25;;
81934;SDS011;71405;47.674;-2.050;2023-08-12T06:39:42;0.30;;;0.30;;
81934;SDS011;71405;47.674;-2.050;2023-08-12T06:42:07;0.20;;;0.20;;
81934;SDS011;71405;47.674;-2.050;2023-08-12T06:44:33;0.30;;;0.30;;
81934;SDS011;71405;47.674;-2.050;2023-08-12T06:46:58;0.30;;;0.30;;
81934;SDS011;71405;47.674;-2.050;2023-08-12T06:49:24;0.30;;;0.30;;
81934;SDS011;71405;47.674;-2.050;2023-08-12T06:51:50;0.30;;;0.30;;
81934;SDS011;71405;47.674;-2.050;2023-08-12T06:54:15;0.30;;;0.30;;
81934;SDS011;71405;47.674;-2.050;2023-08-12T06:56:41;0.30;;;0.30;;
81934;SDS011;71405;47.674;-2.050;2023-08-12T06:59:07;0.40;;;0.40;;
81934;SDS011;71405;47.674;-2.050;2023-08-12T07:01:33;0.50;;;0.50;;
81934;SDS011;71405;47.674;-2.050;2023-08-12T07:03:58;0.73;;;0.60;;
81934;SDS011;71405;47.674;-2.050;2023-08-12T07:06:24;0.40;;;0.40;;
81934;SDS011;71405;47.674;-2.050;2023-08-12T07:08:50;0.40;;;0.40;;
81934;SDS011;71405;47.674;-2.050;2023-08-12T07:11:15;0.38;;;0.38;;
81934;SDS011;71405;47.674;-2.050;2023-08-12T07:13:41;0.32;;;0.32;;
81934;SDS011;71405;47.674;-2.050;2023-08-12T07:16:11;0.50;;;0.50;;
81934;SDS011;71405;47.674;-2.050;2023-08-12T07:18:36;0.90;;;0.50;;
81934;SDS011;71405;47.674;-2.050;2023-08-12T07:21:02;0.50;;;0.50;;
81934;SDS011;71405;47.674;-2.050;2023-08-12T07:23:28;0.30;;;0.30;;
81934;SDS011;71405;47.674;-2.050;2023-08-12T07:25:54;0.55;;;0.55;;
81934;SDS011;71405;47.674;-2.050;2023-08-12T07:28:20;0.50;;;0.50;;
81934;SDS011;71405;47.674;-2.050;2023-08-12T07:30:47;0.80;;;0.80;;
81934;SDS011;71405;47.674;-2.050;2023-08-12T07:33:14;0.57;;;0.45;;
81934;SDS011;71405;47.674;-2.050;2023-08-12T07:35:40;0.40;;;0.40;;
81934;SDS011;71405;47.674;-2.050;2023-08-12T07:38:06;0.40;;;0.40;;
81934;SDS011;71405;47.674;-2.050;2023-08-12T07:40:32;0.40;;;0.40;;
81934;SDS011;71405;47.674;-2.050;2023-08-12T07:42:58;0.60;;;0.50;;
81934;SDS011;71405;47.674;-2.050;2023-08-12T07:45:23;0.38;;;0.38;;
81934;SDS011;71405;47.674;-2.050;2023-08-12T07:47:49;0.57;;;0.57;;
81934;SDS011;71405;47.674;-2.050;2023-08-12T07:50:15;0.80;;;0.80;;
81934;SDS011;71405;47.674;-2.050;2023-08-12T07:52:41;0.52;;;0.52;;
81934;SDS011;71405;47.674;-2.050;2023-08-12T07:55:07;0.60;;;0.60;;
81934;SDS011;71405;47.674;-2.050;2023-08-12T07:57:33;0.73;;;0.60;;
81934;SDS011;71405;47.674;-2.050;2023-08-12T07:59:58;0.50;;;0.50;;
81934;SDS011;71405;47.674;-2.050;2023-08-12T08:02:24;0.40;;;0.40;;
81934;SDS011;71405;47.674;-2.050;2023-08-12T08:04:50;0.40;;;0.40;;
81934;SDS011;71405;47.674;-2.050;2023-08-12T08:07:16;0.45;;;0.45;;
81934;SDS011;71405;47.674;-2.050;2023-08-12T08:09:43;0.47;;;0.47;;
81934;SDS011;71405;47.674;-2.050;2023-08-12T08:12:09;0.50;;;0.50;;
81934;SDS011;71405;47.674;-2.050;2023-08-12T08:14:35;0.50;;;0.50;;
81934;SDS011;71405;47.674;-2.050;2023-08-12T08:17:01;0.90;;;0.90;;
81934;SDS011;71405;47.674;-2.050;2023-08-12T08:19:28;1.95;;;1.75;;
81934;SDS011;71405;47.674;-2.050;2023-08-12T08:21:54;1.00;;;1.00;;
81934;SDS011;71405;47.674;-2.050;2023-08-12T08:24:20;0.70;;;0.70;;
81934;SDS011;71405;47.674;-2.050;2023-08-12T08:26:46;0.55;;;0.55;;
81934;SDS011;71405;47.674;-2.050;2023-08-12T08:29:12;0.60;;;0.60;;
81934;SDS011;71405;47.674;-2.050;2023-08-12T08:31:38;0.50;;;0.47;;
81934;SDS011;71405;47.674;-2.050;2023-08-12T08:34:04;0.50;;;0.50;;
81934;SDS011;71405;47.674;-2.050;2023-08-12T08:36:29;0.43;;;0.43;;
81934;SDS011;71405;47.674;-2.050;2023-08-12T08:38:55;0.65;;;0.65;;
81934;SDS011;71405;47.674;-2.050;2023-08-12T08:41:21;1.05;;;0.90;;
81934;SDS011;71405;47.674;-2.050;2023-08-12T08:43:50;0.75;;;0.75;;
81934;SDS011;71405;47.674;-2.050;2023-08-12T08:46:20;1.20;;;0.80;;
81934;SDS011;71405;47.674;-2.050;2023-08-12T08:48:46;0.50;;;0.50;;
81934;SDS011;71405;47.674;-2.050;2023-08-12T08:51:13;0.43;;;0.43;;
81934;SDS011;71405;47.674;-2.050;2023-08-12T08:53:39;0.55;;;0.50;;
81934;SDS011;71405;47.674;-2.050;2023-08-12T08:56:06;1.10;;;0.43;;
81934;SDS011;71405;47.674;-2.050;2023-08-12T08:58:32;0.68;;;0.68;;
81934;SDS011;71405;47.674;-2.050;2023-08-12T09:00:59;0.75;;;0.70;;
81934;SDS011;71405;47.674;-2.050;2023-08-12T09:03:26;0.80;;;0.80;;
81934;SDS011;71405;47.674;-2.050;2023-08-12T09:05:53;0.57;;;0.57;;
81934;SDS011;71405;47.674;-2.050;2023-08-12T09:08:20;0.82;;;0.70;;
81934;SDS011;71405;47.674;-2.050;2023-08-12T09:10:47;0.50;;;0.50;;
81934;SDS011;71405;47.674;-2.050;2023-08-12T09:13:14;0.50;;;0.50;;
81934;SDS011;71405;47.674;-2.050;2023-08-12T09:15:41;0.93;;;0.60;;
81934;SDS011;71405;47.674;-2.050;2023-08-12T09:18:06;0.52;;;0.50;;
81934;SDS011;71405;47.674;-2.050;2023-08-12T09:20:33;0.40;;;0.40;;
81934;SDS011;71405;47.674;-2.050;2023-08-12T09:22:59;1.00;;;0.60;;
81934;SDS011;71405;47.674;-2.050;2023-08-12T09:25:29;0.55;;;0.55;;
81934;SDS011;71405;47.674;-2.050;2023-08-12T09:27:55;0.77;;;0.77;;
81934;SDS011;71405;47.674;-2.050;2023-08-12T09:30:23;0.50;;;0.50;;
81934;SDS011;71405;47.674;-2.050;2023-08-12T09:32:59;0.70;;;0.70;;
81934;SDS011;71405;47.674;-2.050;2023-08-12T09:35:34;0.50;;;0.50;;
81934;SDS011;71405;47.674;-2.050;2023-08-12T09:38:05;0.50;;;0.50;;
81934;SDS011;71405;47.674;-2.050;2023-08-12T09:40:40;0.52;;;0.50;;
81934;SDS011;71405;47.674;-2.050;2023-08-12T09:43:06;0.60;;;0.60;;
81934;SDS011;71405;47.674;-2.050;2023-08-12T09:45:33;0.68;;;0.65;;
81934;SDS011;71405;47.674;-2.050;2023-08-12T09:47:59;0.55;;;0.50;;
81934;SDS011;71405;47.674;-2.050;2023-08-12T09:50:26;0.90;;;0.50;;
81934;SDS011;71405;47.674;-2.050;2023-08-12T09:52:52;1.00;;;0.90;;
81934;SDS011;71405;47.674;-2.050;2023-08-12T09:55:20;0.88;;;0.85;;
81934;SDS011;71405;47.674;-2.050;2023-08-12T09:57:48;1.23;;;0.90;;
81934;SDS011;71405;47.674;-2.050;2023-08-12T10:00:17;0.70;;;0.70;;
81934;SDS011;71405;47.674;-2.050;2023-08-12T10:02:45;0.93;;;0.80;;
81934;SDS011;71405;47.674;-2.050;2023-08-12T10:05:12;0.60;;;0.60;;
81934;SDS011;71405;47.674;-2.050;2023-08-12T10:07:43;0.88;;;0.70;;
81934;SDS011;71405;47.674;-2.050;2023-08-12T10:10:10;0.60;;;0.60;;
81934;SDS011;71405;47.674;-2.050;2023-08-12T10:12:37;0.77;;;0.70;;
81934;SDS011;71405;47.674;-2.050;2023-08-12T10:15:05;0.70;;;0.70;;
81934;SDS011;71405;47.674;-2.050;2023-08-12T10:17:32;0.65;;;0.65;;
81934;SDS011;71405;47.674;-2.050;2023-08-12T10:20:00;1.15;;;0.70;;
81934;SDS011;71405;47.674;-2.050;2023-08-12T10:22:29;0.47;;;0.47;;
81934;SDS011;71405;47.674;-2.050;2023-08-12T10:24:59;1.40;;;1.20;;
81934;SDS011;71405;47.674;-2.050;2023-08-12T10:27:27;0.85;;;0.85;;
81934;SDS011;71405;47.674;-2.050;2023-08-12T10:29:55;1.00;;;0.82;;
81934;SDS011;71405;47.674;-2.050;2023-08-12T10:32:22;0.63;;;0.63;;
81934;SDS011;71405;47.674;-2.050;2023-08-12T10:34:55;0.57;;;0.57;;
81934;SDS011;71405;47.674;-2.050;2023-08-12T10:37:22;0.70;;;0.70;;
81934;SDS011;71405;47.674;-2.050;2023-08-12T10:39:49;0.50;;;0.50;;
81934;SDS011;71405;47.674;-2.050;2023-08-12T10:45:08;0.70;;;0.70;;
81934;SDS011;71405;47.674;-2.050;2023-08-12T10:50:43;0.65;;;0.65;;
81934;SDS011;71405;47.674;-2.050;2023-08-12T10:53:24;0.70;;;0.65;;
81934;SDS011;71405;47.674;-2.050;2023-08-12T10:55:54;0.50;;;0.50;;
81934;SDS011;71405;47.674;-2.050;2023-08-12T10:58:25;0.65;;;0.65;;
81934;SDS011;71405;47.674;-2.050;2023-08-12T11:00:55;1.92;;;0.93;;
81934;SDS011;71405;47.674;-2.050;2023-08-12T11:03:22;0.95;;;0.88;;
81934;SDS011;71405;47.674;-2.050;2023-08-12T11:05:48;0.80;;;0.80;;
81934;SDS011;71405;47.674;-2.050;2023-08-12T11:08:15;0.68;;;0.68;;
81934;SDS011;71405;47.674;-2.050;2023-08-12T11:10:41;0.70;;;0.70;;
81934;SDS011;71405;47.674;-2.050;2023-08-12T11:13:08;0.77;;;0.75;;
81934;SDS011;71405;47.674;-2.050;2023-08-12T11:15:35;0.65;;;0.50;;
81934;SDS011;71405;47.674;-2.050;2023-08-12T11:20:32;0.65;;;0.65;;
81934;SDS011;71405;47.674;-2.050;2023-08-12T11:22:58;0.50;;;0.50;;
81934;SDS011;71405;47.674;-2.050;2023-08-12T11:25:25;0.80;;;0.70;;
81934;SDS011;71405;47.674;-2.050;2023-08-12T11:27:52;0.88;;;0.80;;
81934;SDS011;71405;47.674;-2.050;2023-08-12T11:30:19;1.00;;;0.60;;
81934;SDS011;71405;47.674;-2.050;2023-08-12T11:32:48;0.75;;;0.75;;
81934;SDS011;71405;47.674;-2.050;2023-08-12T11:35:15;1.30;;;0.85;;
81934;SDS011;71405;47.674;-2.050;2023-08-12T11:37:43;0.60;;;0.60;;
81934;SDS011;71405;47.674;-2.050;2023-08-12T11:40:11;0.85;;;0.85;;
81934;SDS011;71405;47.674;-2.050;2023-08-12T11:42:39;1.05;;;0.88;;
81934;SDS011;71405;47.674;-2.050;2023-08-12T11:45:06;0.85;;;0.85;;
81934;SDS011;71405;47.674;-2.050;2023-08-12T11:47:36;0.80;;;0.80;;
81934;SDS011;71405;47.674;-2.050;2023-08-12T11:50:05;0.65;;;0.60;;
81934;SDS011;71405;47.674;-2.050;2023-08-12T11:52:33;1.02;;;0.80;;
81934;SDS011;71405;47.674;-2.050;2023-08-12T11:54:59;0.50;;;0.50;;
81934;SDS011;71405;47.674;-2.050;2023-08-12T11:57:26;0.52;;;0.50;;
81934;SDS011;71405;47.674;-2.050;2023-08-12T11:59:59;1.23;;;0.80;;
81934;SDS011;71405;47.674;-2.050;2023-08-12T12:02:26;0.60;;;0.60;;
81934;SDS011;71405;47.674;-2.050;2023-08-12T12:04:52;1.58;;;0.90;;
81934;SDS011;71405;47.674;-2.050;2023-08-12T12:07:22;1.00;;;0.80;;
81934;SDS011;71405;47.674;-2.050;2023-08-12T12:12:21;0.40;;;0.40;;
81934;SDS011;71405;47.674;-2.050;2023-08-12T12:14:50;0.70;;;0.70;;
81934;SDS011;71405;47.674;-2.050;2023-08-12T12:17:22;1.02;;;0.70;;
81934;SDS011;71405;47.674;-2.050;2023-08-12T12:19:54;0.68;;;0.50;;
81934;SDS011;71405;47.674;-2.050;2023-08-12T12:22:26;0.57;;;0.57;;
81934;SDS011;71405;47.674;-2.050;2023-08-12T12:24:59;0.50;;;0.50;;
81934;SDS011;71405;47.674;-2.050;2023-08-12T12:27:26;1.35;;;0.85;;
81934;SDS011;71405;47.674;-2.050;2023-08-12T12:29:52;0.60;;;0.60;;
81934;SDS011;71405;47.674;-2.050;2023-08-12T12:32:18;0.77;;;0.75;;
81934;SDS011;71405;47.674;-2.050;2023-08-12T12:34:45;1.55;;;0.73;;
81934;SDS011;71405;47.674;-2.050;2023-08-12T12:37:12;0.60;;;0.60;;
81934;SDS011;71405;47.674;-2.050;2023-08-12T12:39:38;0.65;;;0.60;;
81934;SDS011;71405;47.674;-2.050;2023-08-12T12:42:04;0.60;;;0.60;;
81934;SDS011;71405;47.674;-2.050;2023-08-12T12:44:30;0.60;;;0.60;;
81934;SDS011;71405;47.674;-2.050;2023-08-12T12:46:56;0.65;;;0.60;;
81934;SDS011;71405;47.674;-2.050;2023-08-12T12:49:21;1.05;;;0.80;;
81934;SDS011;71405;47.674;-2.050;2023-08-12T12:51:47;1.13;;;0.60;;
81934;SDS011;71405;47.674;-2.050;2023-08-12T12:54:13;0.90;;;0.70;;
81934;SDS011;71405;47.674;-2.050;2023-08-12T12:56:39;0.70;;;0.60;;
81934;SDS011;71405;47.674;-2.050;2023-08-12T12:59:04;0.70;;;0.70;;
81934;SDS011;71405;47.674;-2.050;2023-08-12T13:01:30;0.68;;;0.68;;
81934;SDS011;71405;47.674;-2.050;2023-08-12T13:03:56;0.50;;;0.50;;
81934;SDS011;71405;47.674;-2.050;2023-08-12T13:06:22;0.60;;;0.60;;
81934;SDS011;71405;47.674;-2.050;2023-08-12T13:08:48;0.60;;;0.60;;
81934;SDS011;71405;47.674;-2.050;2023-08-12T13:11:14;0.75;;;0.63;;
81934;SDS011;71405;47.674;-2.050;2023-08-12T13:13:40;0.60;;;0.60;;
81934;SDS011;71405;47.674;-2.050;2023-08-12T13:16:06;0.70;;;0.70;;
81934;SDS011;71405;47.674;-2.050;2023-08-12T13:18:33;0.93;;;0.75;;
81934;SDS011;71405;47.674;-2.050;2023-08-12T13:20:59;0.82;;;0.80;;
81934;SDS011;71405;47.674;-2.050;2023-08-12T13:23:26;1.20;;;0.90;;
81934;SDS011;71405;47.674;-2.050;2023-08-12T13:25:52;0.70;;;0.63;;
81934;SDS011;71405;47.674;-2.050;2023-08-12T13:28:17;0.80;;;0.68;;
81934;SDS011;71405;47.674;-2.050;2023-08-12T13:30:44;0.95;;;0.77;;
81934;SDS011;71405;47.674;-2.050;2023-08-12T13:33:10;1.05;;;0.75;;
81934;SDS011;71405;47.674;-2.050;2023-08-12T13:35:36;0.70;;;0.70;;
81934;SDS011;71405;47.674;-2.050;2023-08-12T13:38:02;1.13;;;0.90;;
81934;SDS011;71405;47.674;-2.050;2023-08-12T13:40:27;1.25;;;0.70;;
81934;SDS011;71405;47.674;-2.050;2023-08-12T13:42:53;0.93;;;0.70;;
81934;SDS011;71405;47.674;-2.050;2023-08-12T13:45:19;0.55;;;0.55;;
81934;SDS011;71405;47.674;-2.050;2023-08-12T13:47:45;0.60;;;0.60;;
81934;SDS011;71405;47.674;-2.050;2023-08-12T13:50:10;1.05;;;0.80;;
81934;SDS011;71405;47.674;-2.050;2023-08-12T13:52:36;0.50;;;0.50;;
81934;SDS011;71405;47.674;-2.050;2023-08-12T13:55:02;0.60;;;0.60;;
81934;SDS011;71405;47.674;-2.050;2023-08-12T13:57:28;0.75;;;0.70;;
81934;SDS011;71405;47.674;-2.050;2023-08-12T13:59:55;0.80;;;0.80;;
81934;SDS011;71405;47.674;-2.050;2023-08-12T14:02:21;0.60;;;0.60;;
81934;SDS011;71405;47.674;-2.050;2023-08-12T14:04:46;0.68;;;0.52;;
81934;SDS011;71405;47.674;-2.050;2023-08-12T14:07:12;0.50;;;0.50;;
81934;SDS011;71405;47.674;-2.050;2023-08-12T14:09:38;0.57;;;0.57;;
81934;SDS011;71405;47.674;-2.050;2023-08-12T14:12:03;0.85;;;0.50;;
81934;SDS011;71405;47.674;-2.050;2023-08-12T14:14:30;1.00;;;0.60;;
81934;SDS011;71405;47.674;-2.050;2023-08-12T14:16:55;1.02;;;0.70;;
81934;SDS011;71405;47.674;-2.050;2023-08-12T14:19:21;0.70;;;0.70;;
81934;SDS011;71405;47.674;-2.050;2023-08-12T14:21:47;0.63;;;0.60;;
81934;SDS011;71405;47.674;-2.050;2023-08-12T14:24:13;0.65;;;0.65;;
81934;SDS011;71405;47.674;-2.050;2023-08-12T14:26:39;0.68;;;0.57;;
81934;SDS011;71405;47.674;-2.050;2023-08-12T14:29:05;0.82;;;0.70;;
81934;SDS011;71405;47.674;-2.050;2023-08-12T14:31:31;0.75;;;0.75;;
81934;SDS011;71405;47.674;-2.050;2023-08-12T14:33:58;0.75;;;0.75;;
81934;SDS011;71405;47.674;-2.050;2023-08-12T14:36:23;0.82;;;0.80;;
81934;SDS011;71405;47.674;-2.050;2023-08-12T14:38:52;0.75;;;0.70;;
81934;SDS011;71405;47.674;-2.050;2023-08-12T14:41:17;0.70;;;0.65;;
81934;SDS011;71405;47.674;-2.050;2023-08-12T14:43:43;0.70;;;0.70;;
81934;SDS011;71405;47.674;-2.050;2023-08-12T14:46:09;0.98;;;0.73;;